createdAt,value
2022-10-03T00:00:01.847Z,99.26
2022-10-03T00:03:15.123Z,99.53
2022-10-03T00:06:05.013Z,100.00
2022-10-03T00:08:58.193Z,100.00
2022-10-03T00:11:43.651Z,100.00
2022-10-03T00:14:24.442Z,100.00
2022-10-03T00:17:05.786Z,100.00
2022-10-03T00:19:48.151Z,100.00
2022-10-03T00:22:34.247Z,100.00
2022-10-03T00:25:25.438Z,100.00
2022-10-03T00:28:00.556Z,100.00
2022-10-03T00:30:51.480Z,100.00
2022-10-03T00:33:42.935Z,100.00
2022-10-03T00:36:27.233Z,100.00
2022-10-03T00:39:26.661Z,100.00
2022-10-03T00:42:42.123Z,100.00
2022-10-03T00:46:02.579Z,100.00
2022-10-03T00:49:25.638Z,100.00
2022-10-03T00:52:13.183Z,100.00
2022-10-03T00:55:04.299Z,100.00
2022-10-03T00:58:11.442Z,100.00
2022-10-03T01:00:45.654Z,100.00
2022-10-03T01:03:39.128Z,100.00
2022-10-03T01:06:28.034Z,100.00
2022-10-03T01:09:29.398Z,100.00
2022-10-03T01:12:14.758Z,100.00
2022-10-03T01:15:10.740Z,100.00
2022-10-03T01:17:54.159Z,100.00
2022-10-03T01:20:39.727Z,100.00
2022-10-03T01:23:48.730Z,100.00
2022-10-03T01:26:44.783Z,100.00
2022-10-03T01:29:38.563Z,100.00
2022-10-03T01:32:18.123Z,100.00
2022-10-03T01:34:57.915Z,100.00
2022-10-03T01:37:36.708Z,100.00
2022-10-03T01:40:20.583Z,100.00
2022-10-03T01:43:09.826Z,100.00
2022-10-03T01:45:51.378Z,100.00
2022-10-03T01:48:28.879Z,100.00
2022-10-03T01:51:11.634Z,100.00
2022-10-03T01:54:01.347Z,100.00
2022-10-03T01:56:39.639Z,100.00
2022-10-03T01:59:17.875Z,100.00
2022-10-03T02:01:56.826Z,100.00
2022-10-03T02:04:44.941Z,100.00
2022-10-03T02:07:27.069Z,100.00
2022-10-03T02:10:09.793Z,100.00
2022-10-03T02:12:44.749Z,100.00
2022-10-03T02:15:22.823Z,100.00
2022-10-03T02:18:01.564Z,100.00
2022-10-03T02:20:43.521Z,100.00
2022-10-03T02:23:28.743Z,100.00
2022-10-03T02:26:23.665Z,100.00
2022-10-03T02:29:21.165Z,100.00
2022-10-03T02:32:34.074Z,100.00
2022-10-03T02:35:41.758Z,100.00
2022-10-03T02:38:29.455Z,100.00
2022-10-03T02:41:21.605Z,100.00
2022-10-03T02:44:40.537Z,100.00
2022-10-03T02:47:49.248Z,100.00
2022-10-03T02:50:58.531Z,100.00
2022-10-03T02:53:52.501Z,100.00
2022-10-03T02:57:00.752Z,100.00
2022-10-03T03:00:11.680Z,100.00
2022-10-03T03:03:33.624Z,100.00
2022-10-03T03:07:22.005Z,100.00
2022-10-03T03:10:45.354Z,100.00
2022-10-03T03:13:42.545Z,100.00
2022-10-03T03:16:45.136Z,100.00
2022-10-03T03:19:51.547Z,100.00
2022-10-03T03:22:39.441Z,100.00
2022-10-03T03:25:29.707Z,100.00
2022-10-03T03:28:18.569Z,100.00
2022-10-03T03:31:03.024Z,100.00
2022-10-03T03:33:47.323Z,100.00
2022-10-03T03:36:32.733Z,100.00
2022-10-03T03:39:19.079Z,100.00
2022-10-03T03:42:22.477Z,100.00
2022-10-03T03:45:22.142Z,100.00
2022-10-03T03:48:06.575Z,100.00
2022-10-03T03:51:00.569Z,100.00
2022-10-03T03:53:54.596Z,100.00
2022-10-03T03:56:49.050Z,100.00
2022-10-03T03:59:42.149Z,100.00
2022-10-03T04:02:31.769Z,100.00
2022-10-03T04:05:19.963Z,100.00
2022-10-03T04:08:16.212Z,100.00
2022-10-03T04:11:03.861Z,100.00
2022-10-03T04:13:53.715Z,100.00
2022-10-03T04:16:59.428Z,100.00
2022-10-03T04:19:48.741Z,100.00
2022-10-03T04:22:33.455Z,100.00
2022-10-03T04:25:18.342Z,100.00
2022-10-03T04:28:22.627Z,100.00
2022-10-03T04:31:08.183Z,100.00
2022-10-03T04:34:01.083Z,100.00
2022-10-03T04:37:11.431Z,100.00
2022-10-03T04:39:52.797Z,100.00
2022-10-03T04:42:41.201Z,100.00
2022-10-03T04:45:31.788Z,100.00
2022-10-03T04:48:15.536Z,100.00
2022-10-03T04:51:00.482Z,100.00
2022-10-03T04:53:47.181Z,100.00
2022-10-03T04:56:36.950Z,100.00
2022-10-03T04:59:25.103Z,100.00
2022-10-03T05:01:59.361Z,100.00
2022-10-03T05:04:37.736Z,100.00
2022-10-03T05:07:23.482Z,100.00
2022-10-03T05:10:04.493Z,100.00
2022-10-03T05:12:46.541Z,100.00
2022-10-03T05:15:25.464Z,100.00
2022-10-03T05:18:08.249Z,100.00
2022-10-03T05:20:51.793Z,100.00
2022-10-03T05:23:36.117Z,100.00
2022-10-03T05:29:18.939Z,100.00
2022-10-03T05:31:59.257Z,100.00
2022-10-03T05:34:44.853Z,100.00
2022-10-03T05:37:45.026Z,100.00
2022-10-03T05:40:24.681Z,100.00
2022-10-03T05:43:06.889Z,100.00
2022-10-03T05:45:55.144Z,100.00
2022-10-03T05:48:36.427Z,100.00
2022-10-03T05:51:41.351Z,100.00
2022-10-03T05:54:45.988Z,100.00
2022-10-03T05:57:42.158Z,100.00
2022-10-03T06:00:22.021Z,100.00
2022-10-03T06:03:12.984Z,100.00
2022-10-03T06:06:04.290Z,100.00
2022-10-03T06:09:09.831Z,100.00
2022-10-03T06:12:00.940Z,100.00
2022-10-03T06:15:09.007Z,100.00
2022-10-03T06:18:04.017Z,100.00
2022-10-03T06:21:42.030Z,100.00
2022-10-03T06:24:53.580Z,100.00
2022-10-03T06:27:43.159Z,100.00
2022-10-03T06:30:25.878Z,100.00
2022-10-03T06:33:59.379Z,100.00
2022-10-03T06:37:10.028Z,100.00
2022-10-03T06:40:22.179Z,100.00
2022-10-03T06:43:13.252Z,100.00
2022-10-03T06:46:30.917Z,100.00
2022-10-03T06:49:37.690Z,100.00
2022-10-03T06:52:34.903Z,100.00
2022-10-03T06:55:43.257Z,100.00
2022-10-03T06:58:50.493Z,100.00
2022-10-03T07:02:16.120Z,100.00
2022-10-03T07:05:24.563Z,100.00
2022-10-03T07:08:54.782Z,100.00
2022-10-03T07:11:51.626Z,100.00
2022-10-03T07:15:14.983Z,100.00
2022-10-03T07:18:32.599Z,100.00
2022-10-03T07:21:47.355Z,100.00
2022-10-03T07:25:04.576Z,100.00
2022-10-03T07:28:10.586Z,100.00
2022-10-03T07:31:00.875Z,100.00
2022-10-03T07:34:16.790Z,100.00
2022-10-03T07:37:26.791Z,100.00
2022-10-03T07:40:30.029Z,100.00
2022-10-03T07:43:56.493Z,100.00
2022-10-03T07:47:23.740Z,100.00
2022-10-03T07:50:19.898Z,100.00
2022-10-03T07:53:21.281Z,100.00
2022-10-03T07:56:08.626Z,100.00
2022-10-03T07:59:05.586Z,100.00
2022-10-03T08:02:01.384Z,100.00
2022-10-03T08:05:11.555Z,100.00
2022-10-03T08:08:23.767Z,100.00
2022-10-03T08:11:18.530Z,100.00
2022-10-03T08:14:06.228Z,100.00
2022-10-03T08:17:15.297Z,100.00
2022-10-03T08:20:14.025Z,100.00
2022-10-03T08:23:03.946Z,100.00
2022-10-03T08:25:54.486Z,100.00
2022-10-03T08:29:00.594Z,100.00
2022-10-03T08:32:19.430Z,100.00
2022-10-03T08:35:29.909Z,100.00
2022-10-03T08:38:51.713Z,98.91
2022-10-03T08:42:18.326Z,94.00
2022-10-03T08:45:22.152Z,97.90
2022-10-03T08:49:03.696Z,100.00
2022-10-03T08:51:59.323Z,100.00
2022-10-03T08:55:17.411Z,100.00
2022-10-03T08:58:36.735Z,100.00
2022-10-03T09:01:32.094Z,97.58
2022-10-03T09:04:55.019Z,95.93
2022-10-03T09:08:07.861Z,99.26
2022-10-03T09:11:20.079Z,100.00
2022-10-03T09:14:40.705Z,100.00
2022-10-03T09:18:06.402Z,100.00
2022-10-03T09:21:21.435Z,100.00
2022-10-03T09:24:29.907Z,100.00
2022-10-03T09:27:42.825Z,100.00
2022-10-03T09:30:27.076Z,100.00
2022-10-03T09:33:47.588Z,99.71
2022-10-03T09:36:44.201Z,89.33
2022-10-03T09:40:02.617Z,86.70
2022-10-03T09:43:12.872Z,86.01
2022-10-03T09:46:35.048Z,87.63
2022-10-03T09:50:01.660Z,88.93
2022-10-03T09:52:52.766Z,89.72
2022-10-03T09:55:43.588Z,90.11
2022-10-03T09:58:48.454Z,88.34
2022-10-03T10:01:31.160Z,85.58
2022-10-03T10:04:54.688Z,83.80
2022-10-03T10:08:04.732Z,85.48
2022-10-03T10:11:22.118Z,87.59
2022-10-03T10:14:45.560Z,87.89
2022-10-03T10:18:01.554Z,89.06
2022-10-03T10:21:33.443Z,89.93
2022-10-03T10:24:49.994Z,88.66
2022-10-03T10:28:10.006Z,87.19
2022-10-03T10:31:20.283Z,82.17
2022-10-03T10:34:45.266Z,79.75
2022-10-03T10:37:57.324Z,79.37
2022-10-03T10:41:24.132Z,77.66
2022-10-03T10:44:36.442Z,76.39
2022-10-03T10:48:05.506Z,74.16
2022-10-03T10:51:30.974Z,69.01
2022-10-03T10:55:03.896Z,70.18
2022-10-03T10:58:41.254Z,73.39
2022-10-03T11:02:01.999Z,73.20
2022-10-03T11:05:41.316Z,68.47
2022-10-03T11:09:01.137Z,68.69
2022-10-03T11:12:44.655Z,70.84
2022-10-03T11:15:56.605Z,70.40
2022-10-03T11:23:04.962Z,70.48
2022-10-03T11:26:21.264Z,71.84
2022-10-03T11:29:47.174Z,74.04
2022-10-03T11:33:11.354Z,74.29
2022-10-03T11:36:21.545Z,73.54
2022-10-03T11:39:06.315Z,72.00
2022-10-03T11:41:50.130Z,71.47
2022-10-03T11:44:28.641Z,73.59
2022-10-03T11:47:22.356Z,75.88
2022-10-03T11:50:32.175Z,78.36
2022-10-03T11:53:27.099Z,78.46
2022-10-03T11:56:24.055Z,69.45
2022-10-03T11:59:18.898Z,70.01
2022-10-03T12:02:10.619Z,66.98
2022-10-03T12:04:54.471Z,67.90
2022-10-03T12:07:59.843Z,68.59
2022-10-03T12:10:45.216Z,69.95
2022-10-03T12:13:23.206Z,70.67
2022-10-03T12:15:58.255Z,70.33
2022-10-03T12:18:53.703Z,69.47
2022-10-03T12:21:35.369Z,67.74
2022-10-03T12:24:29.041Z,68.10
2022-10-03T12:27:10.079Z,66.89
2022-10-03T12:29:47.618Z,66.40
2022-10-03T12:32:31.902Z,66.83
2022-10-03T12:35:16.871Z,66.60
2022-10-03T12:38:01.445Z,67.15
2022-10-03T12:40:36.595Z,68.15
2022-10-03T12:43:26.051Z,67.76
2022-10-03T12:46:04.624Z,65.69
2022-10-03T12:48:48.638Z,61.81
2022-10-03T12:51:50.002Z,59.86
2022-10-03T12:54:48.523Z,58.65
2022-10-03T12:57:51.288Z,58.09
2022-10-03T13:00:27.975Z,58.32
2022-10-03T13:03:26.174Z,59.15
2022-10-03T13:07:01.288Z,60.12
2022-10-03T13:09:45.351Z,61.54
2022-10-03T13:12:28.129Z,61.69
2022-10-03T13:15:47.549Z,63.33
2022-10-03T13:18:38.763Z,63.39
2022-10-03T13:21:33.728Z,63.76
2022-10-03T13:24:08.049Z,62.46
2022-10-03T13:26:55.934Z,61.79
2022-10-03T13:29:31.991Z,62.65
2022-10-03T13:32:32.764Z,63.78
2022-10-03T13:35:32.490Z,64.88
2022-10-03T13:38:34.856Z,65.45
2022-10-03T13:41:15.769Z,65.14
2022-10-03T13:43:50.550Z,64.27
2022-10-03T13:46:30.224Z,64.10
2022-10-03T13:49:11.034Z,63.02
2022-10-03T13:51:55.026Z,62.17
2022-10-03T13:54:56.565Z,63.95
2022-10-03T13:57:33.214Z,65.54
2022-10-03T14:00:12.178Z,66.23
2022-10-03T14:02:54.123Z,66.35
2022-10-03T14:05:51.694Z,67.06
2022-10-03T14:08:59.201Z,66.93
2022-10-03T14:11:41.314Z,67.59
2022-10-03T14:14:40.321Z,68.35
2022-10-03T14:17:18.005Z,69.96
2022-10-03T14:20:08.210Z,70.53
2022-10-03T14:22:54.124Z,71.18
2022-10-03T14:25:32.855Z,71.19
2022-10-03T14:28:11.470Z,70.97
2022-10-03T14:31:07.349Z,71.44
2022-10-03T14:33:47.274Z,71.72
2022-10-03T14:36:37.333Z,71.83
2022-10-03T14:39:33.008Z,70.56
2022-10-03T14:42:34.532Z,70.62
2022-10-03T14:45:10.000Z,69.91
2022-10-03T14:47:44.075Z,70.01
2022-10-03T14:50:21.440Z,69.78
2022-10-03T14:53:02.226Z,70.11
2022-10-03T14:55:37.111Z,70.47
2022-10-03T14:58:20.701Z,69.00
2022-10-03T15:00:53.198Z,69.61
2022-10-03T15:03:27.942Z,69.50
2022-10-03T15:06:18.978Z,70.21
2022-10-03T15:08:51.433Z,70.62
2022-10-03T15:11:28.736Z,71.75
2022-10-03T15:14:06.491Z,72.29
2022-10-03T15:16:47.112Z,73.10
2022-10-03T15:19:20.906Z,73.19
2022-10-03T15:21:55.163Z,73.79
2022-10-03T15:24:31.314Z,74.99
2022-10-03T15:27:06.826Z,75.50
2022-10-03T15:29:42.424Z,76.53
2022-10-03T15:32:27.825Z,77.64
2022-10-03T15:35:03.058Z,78.77
2022-10-03T15:37:41.801Z,78.97
2022-10-03T15:40:32.190Z,79.87
2022-10-03T15:43:13.103Z,79.28
2022-10-03T15:45:47.870Z,78.52
2022-10-03T15:48:26.248Z,78.46
2022-10-03T15:50:58.809Z,77.91
2022-10-03T15:53:36.718Z,78.22
2022-10-03T15:56:19.089Z,78.38
2022-10-03T15:58:55.267Z,78.73
2022-10-03T16:01:32.473Z,79.00
2022-10-03T16:04:06.261Z,78.53
2022-10-03T16:06:49.694Z,79.53
2022-10-03T16:09:29.090Z,80.36
2022-10-03T16:12:32.442Z,80.43
2022-10-03T16:15:20.785Z,80.40
2022-10-03T16:17:58.984Z,81.13
2022-10-03T16:20:37.859Z,81.43
2022-10-03T16:23:21.043Z,81.33
2022-10-03T16:25:56.704Z,81.94
2022-10-03T16:28:35.995Z,82.44
2022-10-03T16:31:09.946Z,82.57
2022-10-03T16:33:57.898Z,82.95
2022-10-03T16:36:28.764Z,83.15
2022-10-03T16:39:02.279Z,83.48
2022-10-03T16:41:35.298Z,84.63
2022-10-03T16:44:11.232Z,84.75
2022-10-03T16:46:43.543Z,84.74
2022-10-03T16:49:46.553Z,85.24
2022-10-03T16:52:21.522Z,84.97
2022-10-03T16:55:00.710Z,85.08
2022-10-03T16:57:42.063Z,85.67
2022-10-03T17:00:21.620Z,85.79
2022-10-03T17:02:52.772Z,86.17
2022-10-03T17:05:26.614Z,86.16
2022-10-03T17:08:29.732Z,85.84
2022-10-03T17:10:59.541Z,86.58
2022-10-03T17:13:42.115Z,86.76
2022-10-03T17:16:19.819Z,86.85
2022-10-03T17:19:11.622Z,86.82
2022-10-03T17:21:53.993Z,86.08
2022-10-03T17:24:37.228Z,86.00
2022-10-03T17:27:19.672Z,85.92
2022-10-03T17:29:57.970Z,86.09
2022-10-03T17:32:37.308Z,85.67
2022-10-03T17:35:17.542Z,86.19
2022-10-03T17:38:44.697Z,87.08
2022-10-03T17:41:22.834Z,87.99
2022-10-03T17:44:14.354Z,89.45
2022-10-03T17:46:53.260Z,92.60
2022-10-03T17:49:32.471Z,95.67
2022-10-03T17:52:02.839Z,98.49
2022-10-03T17:54:39.300Z,100.00
2022-10-03T17:57:20.486Z,100.00
2022-10-03T17:59:58.880Z,100.00
2022-10-03T18:02:38.947Z,100.00
2022-10-03T18:05:20.213Z,100.00
2022-10-03T18:07:55.247Z,100.00
2022-10-03T18:10:33.601Z,100.00
2022-10-03T18:13:10.556Z,100.00
2022-10-03T18:16:03.856Z,100.00
2022-10-03T18:19:12.729Z,100.00
2022-10-03T18:22:02.786Z,100.00
2022-10-03T18:24:54.376Z,100.00
2022-10-03T18:28:12.283Z,100.00
2022-10-03T18:30:51.161Z,100.00
2022-10-03T18:33:27.066Z,100.00
2022-10-03T18:35:57.884Z,100.00
2022-10-03T18:38:31.561Z,100.00
2022-10-03T18:41:03.873Z,100.00
2022-10-03T18:43:45.511Z,100.00
2022-10-03T18:46:26.267Z,100.00
2022-10-03T18:52:03.337Z,100.00
2022-10-03T18:54:49.248Z,100.00
2022-10-03T18:57:25.630Z,100.00
2022-10-03T19:00:08.422Z,100.00
2022-10-03T19:02:44.344Z,100.00
2022-10-03T19:05:22.374Z,100.00
2022-10-03T19:08:01.955Z,100.00
2022-10-03T19:10:42.358Z,100.00
2022-10-03T19:13:24.869Z,100.00
2022-10-03T19:16:27.348Z,100.00
2022-10-03T19:19:10.044Z,100.00
2022-10-03T19:21:43.765Z,100.00
2022-10-03T19:24:34.487Z,100.00
2022-10-03T19:27:20.662Z,100.00
2022-10-03T19:29:55.178Z,100.00
2022-10-03T19:32:35.156Z,100.00
2022-10-03T19:35:08.678Z,100.00
2022-10-03T19:37:46.146Z,100.00
2022-10-03T19:40:44.568Z,100.00
2022-10-03T19:43:44.231Z,100.00
2022-10-03T19:46:37.936Z,100.00
2022-10-03T19:49:34.183Z,100.00
2022-10-03T19:52:19.558Z,100.00
2022-10-03T19:54:57.250Z,100.00
2022-10-03T19:57:35.291Z,100.00
2022-10-03T20:00:10.115Z,100.00
2022-10-03T20:02:43.687Z,100.00
2022-10-03T20:05:22.148Z,100.00
2022-10-03T20:08:00.109Z,100.00
2022-10-03T20:10:57.679Z,100.00
2022-10-03T20:13:28.021Z,100.00
2022-10-03T20:16:00.600Z,100.00
2022-10-03T20:18:36.382Z,100.00
2022-10-03T20:21:14.689Z,100.00
2022-10-03T20:23:46.989Z,100.00
2022-10-03T20:26:26.710Z,100.00
2022-10-03T20:29:24.582Z,100.00
2022-10-03T20:32:01.592Z,100.00
2022-10-03T20:34:32.880Z,100.00
2022-10-03T20:37:30.660Z,100.00
2022-10-03T20:40:13.516Z,100.00
2022-10-03T20:42:46.992Z,100.00
2022-10-03T20:45:21.603Z,100.00
2022-10-03T20:48:00.932Z,100.00
2022-10-03T20:50:36.413Z,100.00
2022-10-03T20:53:22.464Z,100.00
2022-10-03T20:55:55.976Z,100.00
2022-10-03T20:58:32.732Z,100.00
2022-10-03T21:01:07.636Z,100.00
2022-10-03T21:03:46.534Z,100.00
2022-10-03T21:06:24.568Z,100.00
2022-10-03T21:09:01.440Z,100.00
2022-10-03T21:11:34.755Z,100.00
2022-10-03T21:14:17.611Z,100.00
2022-10-03T21:16:52.116Z,100.00
2022-10-03T21:19:28.592Z,100.00
2022-10-03T21:22:04.860Z,100.00
2022-10-03T21:24:49.842Z,100.00
2022-10-03T21:27:23.122Z,100.00
2022-10-03T21:30:00.411Z,100.00
2022-10-03T21:32:52.440Z,100.00
2022-10-03T21:35:27.895Z,100.00
2022-10-03T21:38:14.783Z,100.00
2022-10-03T21:41:12.856Z,100.00
2022-10-03T21:43:53.396Z,100.00
2022-10-03T21:46:37.810Z,100.00
2022-10-03T21:49:29.654Z,100.00
2022-10-03T21:52:23.019Z,100.00
2022-10-03T21:55:09.473Z,100.00
2022-10-03T21:57:57.851Z,100.00
2022-10-03T22:00:31.623Z,100.00
2022-10-03T22:03:14.340Z,100.00
2022-10-03T22:05:52.895Z,100.00
2022-10-03T22:08:27.301Z,100.00
2022-10-03T22:11:10.032Z,100.00
2022-10-03T22:13:51.237Z,100.00
2022-10-03T22:16:30.015Z,100.00
2022-10-03T22:19:19.307Z,100.00
2022-10-03T22:22:07.356Z,100.00
2022-10-03T22:24:51.056Z,100.00
2022-10-03T22:27:31.965Z,100.00
2022-10-03T22:30:09.299Z,100.00
2022-10-03T22:32:45.194Z,100.00
2022-10-03T22:35:46.197Z,100.00
2022-10-03T22:38:17.532Z,100.00
2022-10-03T22:40:51.938Z,100.00
2022-10-03T22:43:22.916Z,100.00
2022-10-03T22:45:56.228Z,100.00
2022-10-03T22:48:31.437Z,100.00
2022-10-03T22:51:03.901Z,100.00
2022-10-03T22:53:38.479Z,100.00
2022-10-03T22:56:50.330Z,100.00
2022-10-03T22:59:25.541Z,100.00
2022-10-03T23:02:02.675Z,100.00
2022-10-03T23:04:41.990Z,100.00
2022-10-03T23:08:06.436Z,100.00
2022-10-03T23:10:48.495Z,100.00
2022-10-03T23:13:35.274Z,100.00
2022-10-03T23:16:21.029Z,100.00
2022-10-03T23:19:11.723Z,100.00
2022-10-03T23:21:48.553Z,100.00
2022-10-03T23:24:27.417Z,100.00
2022-10-03T23:27:32.898Z,100.00
2022-10-03T23:30:56.591Z,100.00
2022-10-03T23:33:55.155Z,100.00
2022-10-03T23:36:28.798Z,100.00
2022-10-03T23:39:03.430Z,100.00
2022-10-03T23:42:00.910Z,100.00
2022-10-03T23:44:45.734Z,100.00
2022-10-03T23:47:22.670Z,100.00
2022-10-03T23:49:54.056Z,100.00
2022-10-03T23:52:31.398Z,100.00
2022-10-03T23:55:08.416Z,100.00
2022-10-03T23:57:45.030Z,100.00
